createdAt,value
2019-06-26T00:00:18.712Z,95624.30
2019-06-26T00:02:47.345Z,95618.19
2019-06-26T00:05:16.187Z,95627.94
2019-06-26T00:07:46.165Z,95625.41
2019-06-26T00:10:14.799Z,95629.19
2019-06-26T00:12:43.762Z,95630.95
2019-06-26T00:15:12.818Z,95629.31
2019-06-26T00:17:41.554Z,95629.69
2019-06-26T00:20:10.295Z,95625.52
2019-06-26T00:22:38.970Z,95631.23
2019-06-26T00:25:07.820Z,95634.13
2019-06-26T00:27:36.559Z,95639.98
2019-06-26T00:30:08.862Z,95634.19
2019-06-26T00:32:37.428Z,95631.91
2019-06-26T00:35:06.569Z,95634.68
2019-06-26T00:37:35.245Z,95635.44
2019-06-26T00:40:05.205Z,95637.48
2019-06-26T00:42:33.887Z,95639.23
2019-06-26T00:45:02.541Z,95637.69
2019-06-26T00:47:31.182Z,95638.11
2019-06-26T00:49:59.828Z,95632.27
2019-06-26T00:52:28.490Z,95633.37
2019-06-26T00:54:56.990Z,95637.81
2019-06-26T00:57:25.565Z,95639.33
2019-06-26T00:59:54.321Z,95634.37
2019-06-26T01:02:22.890Z,95635.64
2019-06-26T01:04:53.033Z,95644.62
2019-06-26T01:07:21.707Z,95645.52
2019-06-26T01:09:50.343Z,95640.86
2019-06-26T01:12:18.913Z,95641.22
2019-06-26T01:14:47.474Z,95638.82
2019-06-26T01:17:16.043Z,95634.13
2019-06-26T01:19:44.804Z,95631.22
2019-06-26T01:22:13.412Z,95629.97
2019-06-26T01:24:41.990Z,95638.47
2019-06-26T01:27:10.559Z,95643.50
2019-06-26T01:29:39.239Z,95645.77
2019-06-26T01:32:07.979Z,95636.55
2019-06-26T01:34:36.482Z,95638.30
2019-06-26T01:37:05.167Z,95636.67
2019-06-26T01:39:33.813Z,95634.14
2019-06-26T01:42:02.596Z,95642.12
2019-06-26T01:44:31.277Z,95639.47
2019-06-26T01:46:59.851Z,95645.77
2019-06-26T01:49:28.495Z,95650.63
2019-06-26T01:51:57.123Z,95651.22
2019-06-26T01:54:25.610Z,95651.61
2019-06-26T01:56:54.186Z,95653.39
2019-06-26T01:59:22.865Z,95650.64
2019-06-26T02:01:51.498Z,95654.31
2019-06-26T02:04:20.223Z,95651.78
2019-06-26T02:06:49.112Z,95649.35
2019-06-26T02:09:17.617Z,95652.15
2019-06-26T02:11:46.195Z,95643.16
2019-06-26T02:14:30.031Z,95646.72
2019-06-26T02:16:45.300Z,95652.64
2019-06-26T02:19:15.543Z,95653.03
2019-06-26T02:21:44.154Z,95653.41
2019-06-26T02:24:12.799Z,95661.52
2019-06-26T02:26:41.440Z,95654.41
2019-06-26T02:29:10.211Z,95649.21
2019-06-26T02:31:38.932Z,95659.18
2019-06-26T02:34:07.610Z,95655.25
2019-06-26T02:36:36.208Z,95660.45
2019-06-26T02:39:06.657Z,95661.39
2019-06-26T02:41:35.889Z,95656.95
2019-06-26T02:44:04.977Z,95660.97
2019-06-26T02:46:33.719Z,95665.41
2019-06-26T02:49:02.366Z,95663.23
2019-06-26T02:51:30.986Z,95660.73
2019-06-26T02:53:59.582Z,95662.63
2019-06-26T02:56:28.151Z,95652.51
2019-06-26T02:58:56.863Z,95652.15
2019-06-26T03:01:25.663Z,95655.95
2019-06-26T03:03:54.241Z,95661.14
2019-06-26T03:06:22.916Z,95659.61
2019-06-26T03:08:51.556Z,95664.56
2019-06-26T03:11:20.895Z,95659.61
2019-06-26T03:13:49.620Z,95663.66
2019-06-26T03:16:18.244Z,95670.63
2019-06-26T03:18:46.905Z,95663.78
2019-06-26T03:21:15.517Z,95666.16
2019-06-26T03:23:44.106Z,95666.90
2019-06-26T03:26:12.939Z,95659.88
2019-06-26T03:28:41.530Z,95668.30
2019-06-26T03:31:10.168Z,95659.64
2019-06-26T03:33:38.807Z,95665.38
2019-06-26T03:36:07.451Z,95664.13
2019-06-26T03:38:35.942Z,95665.63
2019-06-26T03:41:04.617Z,95666.33
2019-06-26T03:43:35.411Z,95666.00
2019-06-26T03:46:03.603Z,95657.87
2019-06-26T03:48:32.135Z,95659.38
2019-06-26T03:51:00.779Z,95650.31
2019-06-26T03:53:29.495Z,95650.31
2019-06-26T03:55:58.267Z,95656.66
2019-06-26T03:58:26.764Z,95656.35
2019-06-26T04:00:55.404Z,95662.72
2019-06-26T04:03:24.005Z,95665.45
2019-06-26T04:05:52.576Z,95663.50
2019-06-26T04:08:21.213Z,95667.47
2019-06-26T04:10:49.979Z,95674.59
2019-06-26T04:13:18.637Z,95679.87
2019-06-26T04:15:50.702Z,95682.42
2019-06-26T04:18:17.598Z,95683.61
2019-06-26T04:20:46.162Z,95673.14
2019-06-26T04:23:14.679Z,95675.55
2019-06-26T04:25:43.379Z,95678.79
2019-06-26T04:28:12.852Z,95671.00
2019-06-26T04:30:41.355Z,95673.80
2019-06-26T04:33:09.963Z,95677.28
2019-06-26T04:35:38.621Z,95676.01
2019-06-26T04:38:07.251Z,95675.58
2019-06-26T04:40:35.878Z,95674.84
2019-06-26T04:43:04.502Z,95689.94
2019-06-26T04:45:33.071Z,95687.18
2019-06-26T04:48:01.663Z,95681.72
2019-06-26T04:50:30.326Z,95685.92
2019-06-26T04:52:58.942Z,95681.87
2019-06-26T04:55:27.656Z,95677.08
2019-06-26T04:57:56.148Z,95689.05
2019-06-26T05:00:25.184Z,95690.76
2019-06-26T05:02:53.859Z,95691.08
2019-06-26T05:05:38.210Z,95702.91
2019-06-26T05:07:53.806Z,95692.73
2019-06-26T05:10:22.556Z,95692.81
2019-06-26T05:12:51.230Z,95697.79
2019-06-26T05:15:20.054Z,95696.67
2019-06-26T05:17:48.679Z,95693.91
2019-06-26T05:20:17.512Z,95699.34
2019-06-26T05:22:46.117Z,95697.84
2019-06-26T05:25:15.432Z,95701.87
2019-06-26T05:27:44.074Z,95705.97
2019-06-26T05:30:13.141Z,95701.26
2019-06-26T05:32:41.820Z,95719.03
2019-06-26T05:35:10.724Z,95719.67
2019-06-26T05:37:39.433Z,95716.14
2019-06-26T05:40:10.728Z,95720.20
2019-06-26T05:42:39.355Z,95723.98
2019-06-26T05:45:08.823Z,95716.70
2019-06-26T05:47:37.469Z,95718.48
2019-06-26T05:50:08.064Z,95716.16
2019-06-26T05:52:36.734Z,95718.59
2019-06-26T05:55:06.759Z,95729.50
2019-06-26T05:57:35.386Z,95721.74
2019-06-26T06:00:09.144Z,95720.77
2019-06-26T06:02:37.774Z,95728.53
2019-06-26T06:05:08.118Z,95729.71
2019-06-26T06:07:36.727Z,95732.97
2019-06-26T06:10:09.422Z,95725.97
2019-06-26T06:12:38.055Z,95728.94
2019-06-26T06:15:08.035Z,95732.87
2019-06-26T06:17:37.082Z,95728.53
2019-06-26T06:20:07.521Z,95734.52
2019-06-26T06:22:36.220Z,95737.75
2019-06-26T06:25:06.442Z,95735.04
2019-06-26T06:27:34.934Z,95740.61
2019-06-26T06:30:05.417Z,95732.91
2019-06-26T06:32:34.048Z,95732.21
2019-06-26T06:35:02.611Z,95734.06
2019-06-26T06:37:31.132Z,95728.05
2019-06-26T06:39:59.769Z,95736.59
2019-06-26T06:42:28.395Z,95733.48
2019-06-26T06:44:56.993Z,95744.40
2019-06-26T06:47:25.554Z,95743.52
2019-06-26T06:49:54.201Z,95742.67
2019-06-26T06:52:22.883Z,95746.63
2019-06-26T06:54:51.443Z,95751.05
2019-06-26T06:57:20.097Z,95753.25
2019-06-26T06:59:48.751Z,95749.30
2019-06-26T07:02:17.393Z,95738.30
2019-06-26T07:04:45.875Z,95738.30
2019-06-26T07:07:14.539Z,95745.26
2019-06-26T07:09:43.167Z,95752.62
2019-06-26T07:12:11.796Z,95747.73
2019-06-26T07:14:40.336Z,95748.84
2019-06-26T07:17:19.900Z,95760.95
2019-06-26T07:19:39.318Z,95759.17
2019-06-26T07:22:07.906Z,95754.13
2019-06-26T07:24:36.547Z,95754.85
2019-06-26T07:27:05.168Z,95770.62
2019-06-26T07:29:33.760Z,95758.41
2019-06-26T07:32:02.367Z,95769.67
2019-06-26T07:34:30.985Z,95771.03
2019-06-26T07:36:59.652Z,95760.99
2019-06-26T07:39:28.287Z,95755.91
2019-06-26T07:41:56.830Z,95764.80
2019-06-26T07:44:25.465Z,95762.58
2019-06-26T07:46:54.090Z,95757.74
2019-06-26T07:49:22.681Z,95757.73
2019-06-26T07:51:51.247Z,95753.83
2019-06-26T07:54:19.876Z,95773.92
2019-06-26T07:56:48.589Z,95764.03
2019-06-26T07:59:17.155Z,95763.00
2019-06-26T08:01:45.809Z,95766.06
2019-06-26T08:04:14.339Z,95760.55
2019-06-26T08:06:42.955Z,95762.97
2019-06-26T08:09:11.584Z,95759.04
2019-06-26T08:11:40.255Z,95760.39
2019-06-26T08:14:08.813Z,95769.33
2019-06-26T08:16:37.302Z,95769.33
2019-06-26T08:19:05.976Z,95767.70
2019-06-26T08:21:34.599Z,95770.09
2019-06-26T08:24:03.101Z,95767.16
2019-06-26T08:26:31.610Z,95762.75
2019-06-26T08:29:00.243Z,95766.38
2019-06-26T08:31:28.967Z,95772.40
2019-06-26T08:33:57.492Z,95766.38
2019-06-26T08:36:25.994Z,95765.56
2019-06-26T08:38:54.617Z,95773.03
2019-06-26T08:41:23.234Z,95773.03
2019-06-26T08:43:51.863Z,95775.22
2019-06-26T08:46:20.481Z,95790.97
2019-06-26T08:48:51.900Z,95780.00
2019-06-26T08:51:19.547Z,95785.20
2019-06-26T08:53:48.131Z,95787.05
2019-06-26T08:56:16.802Z,95790.48
2019-06-26T08:58:45.285Z,95784.74
2019-06-26T09:01:13.803Z,95787.92
2019-06-26T09:03:42.551Z,95797.86
2019-06-26T09:06:11.178Z,95786.73
2019-06-26T09:08:39.670Z,95788.47
2019-06-26T09:11:08.190Z,95787.92
2019-06-26T09:13:36.824Z,95789.86
2019-06-26T09:16:05.447Z,95782.70
2019-06-26T09:18:35.755Z,95788.63
2019-06-26T09:21:04.380Z,95785.33
2019-06-26T09:23:32.891Z,95780.77
2019-06-26T09:26:01.505Z,95782.66
2019-06-26T09:28:30.122Z,95775.73
2019-06-26T09:30:58.750Z,95788.14
2019-06-26T09:33:27.351Z,95774.93
2019-06-26T09:35:56.090Z,95780.79
2019-06-26T09:38:24.725Z,95773.66
2019-06-26T09:40:53.414Z,95768.52
2019-06-26T09:43:21.916Z,95743.13
2019-06-26T09:45:50.402Z,95762.41
2019-06-26T09:48:19.072Z,95788.38
2019-06-26T09:50:47.689Z,95759.88
2019-06-26T09:53:16.277Z,95766.17
2019-06-26T09:55:44.926Z,95772.53
2019-06-26T09:58:13.823Z,95771.05
2019-06-26T10:00:42.502Z,95765.37
2019-06-26T10:03:11.231Z,95750.49
2019-06-26T10:05:39.860Z,95768.27
2019-06-26T10:08:08.354Z,95763.07
2019-06-26T10:10:36.952Z,95759.48
2019-06-26T10:13:05.571Z,95756.28
2019-06-26T10:15:34.185Z,95757.11
2019-06-26T10:18:02.786Z,95761.23
2019-06-26T10:20:31.267Z,95753.98
2019-06-26T10:22:59.919Z,95767.73
2019-06-26T10:25:28.567Z,95748.27
2019-06-26T10:27:57.123Z,95732.02
2019-06-26T10:30:25.748Z,95737.34
2019-06-26T10:32:54.413Z,95739.41
2019-06-26T10:35:23.041Z,95733.28
2019-06-26T10:37:51.613Z,95725.69
2019-06-26T10:40:20.699Z,95735.75
2019-06-26T10:42:49.245Z,95743.23
2019-06-26T10:45:18.274Z,95742.41
2019-06-26T10:47:46.944Z,95726.67
2019-06-26T10:50:16.254Z,95716.30
2019-06-26T10:52:44.948Z,95720.03
2019-06-26T10:55:13.705Z,95735.08
2019-06-26T10:57:42.344Z,95711.20
2019-06-26T11:00:11.809Z,95699.54
2019-06-26T11:02:40.485Z,95704.06
2019-06-26T11:05:09.807Z,95716.80
2019-06-26T11:07:38.440Z,95717.90
2019-06-26T11:10:08.717Z,95700.53
2019-06-26T11:12:37.357Z,95699.77
2019-06-26T11:15:07.719Z,95708.47
2019-06-26T11:17:36.448Z,95689.28
2019-06-26T11:20:07.723Z,95697.98
2019-06-26T11:22:36.492Z,95695.44
2019-06-26T11:25:07.250Z,95706.17
2019-06-26T11:27:35.867Z,95688.60
2019-06-26T11:30:09.615Z,95697.95
2019-06-26T11:32:38.291Z,95697.25
2019-06-26T11:35:07.929Z,95686.04
2019-06-26T11:37:36.749Z,95700.44
2019-06-26T11:40:09.332Z,95706.26
2019-06-26T11:42:37.953Z,95693.44
2019-06-26T11:45:09.842Z,95702.55
2019-06-26T11:47:38.599Z,95707.42
2019-06-26T11:50:11.650Z,95698.61
2019-06-26T11:52:40.698Z,95685.20
2019-06-26T11:55:09.766Z,95692.20
2019-06-26T11:57:38.389Z,95682.73
2019-06-26T12:00:09.878Z,95681.14
2019-06-26T12:02:38.464Z,95685.56
2019-06-26T12:05:07.934Z,95673.77
2019-06-26T12:07:36.641Z,95670.16
2019-06-26T12:10:09.777Z,95671.61
2019-06-26T12:12:38.638Z,95663.49
2019-06-26T12:15:07.766Z,95683.10
2019-06-26T12:17:36.443Z,95668.48
2019-06-26T12:20:17.837Z,95667.69
2019-06-26T12:22:37.559Z,95654.14
2019-06-26T12:25:07.077Z,95663.13
2019-06-26T12:27:35.688Z,95646.23
2019-06-26T12:30:06.115Z,95649.64
2019-06-26T12:32:41.878Z,95643.61
2019-06-26T12:35:06.436Z,95647.20
2019-06-26T12:37:38.091Z,95643.41
2019-06-26T12:40:07.373Z,95654.69
2019-06-26T12:42:35.937Z,95662.66
2019-06-26T12:45:07.097Z,95659.98
2019-06-26T12:47:35.757Z,95667.15
2019-06-26T12:50:06.781Z,95657.28
2019-06-26T12:52:35.343Z,95644.77
2019-06-26T12:55:07.875Z,95640.41
2019-06-26T12:57:36.506Z,95640.55
2019-06-26T13:00:09.666Z,95634.37
2019-06-26T13:02:38.146Z,95649.83
2019-06-26T13:05:07.612Z,95642.05
2019-06-26T13:07:36.279Z,95628.50
2019-06-26T13:10:07.745Z,95622.18
2019-06-26T13:12:36.836Z,95613.85
2019-06-26T13:15:07.633Z,95615.27
2019-06-26T13:17:36.289Z,95625.47
2019-06-26T13:20:10.162Z,95608.75
2019-06-26T13:22:38.367Z,95613.34
2019-06-26T13:25:10.169Z,95616.51
2019-06-26T13:27:38.799Z,95621.84
2019-06-26T13:30:08.373Z,95611.95
2019-06-26T13:32:36.997Z,95601.85
2019-06-26T13:35:08.706Z,95603.91
2019-06-26T13:37:37.424Z,95602.95
2019-06-26T13:40:07.566Z,95599.88
2019-06-26T13:42:36.195Z,95601.04
2019-06-26T13:45:07.199Z,95604.77
2019-06-26T13:47:35.780Z,95600.70
2019-06-26T13:50:08.824Z,95601.68
2019-06-26T13:52:37.556Z,95611.39
2019-06-26T13:55:06.885Z,95606.72
2019-06-26T13:57:35.554Z,95599.48
2019-06-26T14:00:06.586Z,95619.28
2019-06-26T14:02:35.145Z,95602.34
2019-06-26T14:05:03.864Z,95605.50
2019-06-26T14:07:32.463Z,95601.56
2019-06-26T14:10:01.180Z,95596.58
2019-06-26T14:12:29.694Z,95594.84
2019-06-26T14:14:58.431Z,95589.95
2019-06-26T14:17:27.056Z,95593.19
2019-06-26T14:19:55.741Z,95579.92
2019-06-26T14:22:24.380Z,95584.77
2019-06-26T14:24:54.259Z,95579.49
2019-06-26T14:27:23.102Z,95583.14
2019-06-26T14:29:51.735Z,95567.35
2019-06-26T14:32:20.350Z,95567.83
2019-06-26T14:34:48.885Z,95581.39
2019-06-26T14:37:17.541Z,95568.19
2019-06-26T14:39:46.090Z,95565.63
2019-06-26T14:42:14.745Z,95566.68
2019-06-26T14:44:43.301Z,95561.16
2019-06-26T14:47:11.854Z,95558.80
2019-06-26T14:49:40.502Z,95567.03
2019-06-26T14:52:09.146Z,95572.08
2019-06-26T14:54:37.778Z,95588.05
2019-06-26T14:57:06.369Z,95560.75
2019-06-26T14:59:34.895Z,95574.52
2019-06-26T15:02:03.529Z,95577.15
2019-06-26T15:04:32.198Z,95564.32
2019-06-26T15:07:00.703Z,95553.06
2019-06-26T15:09:29.265Z,95553.31
2019-06-26T15:11:57.901Z,95562.11
2019-06-26T15:14:26.527Z,95551.31
2019-06-26T15:16:55.055Z,95550.77
2019-06-26T15:19:23.802Z,95556.61
2019-06-26T15:21:58.350Z,95568.08
2019-06-26T15:24:22.615Z,95559.68
2019-06-26T15:26:51.298Z,95564.51
2019-06-26T15:29:19.925Z,95554.77
2019-06-26T15:31:48.455Z,95566.49
2019-06-26T15:34:16.942Z,95546.39
2019-06-26T15:36:45.632Z,95552.53
2019-06-26T15:39:14.347Z,95571.20
2019-06-26T15:41:42.843Z,95566.68
2019-06-26T15:44:11.483Z,95569.91
2019-06-26T15:46:40.155Z,95558.88
2019-06-26T15:49:08.877Z,95553.91
2019-06-26T15:51:37.457Z,95553.61
2019-06-26T15:54:06.133Z,95549.61
2019-06-26T15:56:34.773Z,95562.34
2019-06-26T15:59:03.265Z,95555.42
2019-06-26T16:01:31.932Z,95553.21
2019-06-26T16:04:00.575Z,95550.80
2019-06-26T16:06:29.125Z,95552.86
2019-06-26T16:08:57.653Z,95561.19
2019-06-26T16:11:26.382Z,95570.43
2019-06-26T16:13:55.012Z,95567.16
2019-06-26T16:16:24.408Z,95578.87
2019-06-26T16:18:54.547Z,95583.26
2019-06-26T16:21:23.179Z,95596.17
2019-06-26T16:23:51.898Z,95576.42
2019-06-26T16:26:20.387Z,95597.04
2019-06-26T16:28:48.948Z,95586.66
2019-06-26T16:31:17.706Z,95580.34
2019-06-26T16:33:46.330Z,95584.69
2019-06-26T16:36:15.057Z,95583.80
2019-06-26T16:38:43.718Z,95562.64
2019-06-26T16:41:12.348Z,95569.89
2019-06-26T16:43:40.846Z,95567.15
2019-06-26T16:46:09.534Z,95558.66
2019-06-26T16:48:38.190Z,95558.34
2019-06-26T16:51:06.814Z,95557.39
2019-06-26T16:53:35.782Z,95558.63
2019-06-26T16:56:04.460Z,95564.14
2019-06-26T16:58:33.108Z,95559.89
2019-06-26T17:01:01.701Z,95569.66
2019-06-26T17:03:30.193Z,95559.13
2019-06-26T17:05:58.834Z,95558.45
2019-06-26T17:08:27.545Z,95550.79
2019-06-26T17:10:56.071Z,95554.77
2019-06-26T17:13:24.630Z,95553.02
2019-06-26T17:15:53.291Z,95545.77
2019-06-26T17:18:21.915Z,95538.20
2019-06-26T17:20:50.562Z,95537.67
2019-06-26T17:23:19.188Z,95549.67
2019-06-26T17:25:47.868Z,95542.77
2019-06-26T17:28:16.515Z,95538.47
2019-06-26T17:30:45.337Z,95530.30
2019-06-26T17:33:13.842Z,95532.70
2019-06-26T17:35:42.574Z,95521.20
2019-06-26T17:38:11.243Z,95513.95
2019-06-26T17:40:39.793Z,95511.86
2019-06-26T17:43:12.783Z,95530.62
2019-06-26T17:45:38.660Z,95544.94
2019-06-26T17:48:07.292Z,95528.00
2019-06-26T17:50:35.787Z,95525.64
2019-06-26T17:53:17.502Z,95525.87
2019-06-26T17:55:34.749Z,95534.54
2019-06-26T17:58:03.275Z,95529.92
2019-06-26T18:00:36.399Z,95525.89
2019-06-26T18:03:05.527Z,95534.65
2019-06-26T18:05:34.090Z,95530.77
2019-06-26T18:08:02.626Z,95531.88
2019-06-26T18:10:31.248Z,95535.53
2019-06-26T18:12:59.882Z,95535.44
2019-06-26T18:15:28.405Z,95531.88
2019-06-26T18:17:57.038Z,95537.40
2019-06-26T18:20:25.688Z,95533.39
2019-06-26T18:23:06.386Z,95540.95
2019-06-26T18:25:26.821Z,95549.17
2019-06-26T18:27:55.316Z,95546.89
2019-06-26T18:30:24.184Z,95551.10
2019-06-26T18:32:52.826Z,95550.48
2019-06-26T18:35:21.452Z,95571.95
2019-06-26T18:37:50.116Z,95572.37
2019-06-26T18:40:18.787Z,95574.66
2019-06-26T18:42:47.277Z,95583.98
2019-06-26T18:45:15.966Z,95579.13
2019-06-26T18:47:44.603Z,95586.91
2019-06-26T18:50:13.931Z,95581.20
2019-06-26T18:52:42.508Z,95579.25
2019-06-26T18:55:11.155Z,95584.42
2019-06-26T18:57:39.845Z,95588.72
2019-06-26T19:00:09.228Z,95590.11
2019-06-26T19:02:37.789Z,95585.98
2019-06-26T19:05:08.138Z,95585.75
2019-06-26T19:07:36.807Z,95584.66
2019-06-26T19:10:07.961Z,95587.45
2019-06-26T19:12:37.896Z,95587.14
2019-06-26T19:15:07.162Z,95585.09
2019-06-26T19:17:35.911Z,95593.06
2019-06-26T19:20:06.779Z,95586.48
2019-06-26T19:22:35.437Z,95585.72
2019-06-26T19:25:05.473Z,95584.52
2019-06-26T19:27:33.970Z,95588.73
2019-06-26T19:30:03.080Z,95589.48
2019-06-26T19:32:31.725Z,95586.89
2019-06-26T19:35:08.181Z,95585.80
2019-06-26T19:37:30.547Z,95586.13
2019-06-26T19:39:59.168Z,95583.56
2019-06-26T19:42:27.904Z,95585.17
2019-06-26T19:44:56.449Z,95581.84
2019-06-26T19:47:24.941Z,95582.59
2019-06-26T19:49:53.580Z,95586.83
2019-06-26T19:52:22.237Z,95577.66
2019-06-26T19:54:50.736Z,95587.34
2019-06-26T19:57:19.372Z,95583.85
2019-06-26T19:59:48.054Z,95580.20
2019-06-26T20:02:16.688Z,95588.72
2019-06-26T20:04:48.145Z,95589.77
2019-06-26T20:07:15.667Z,95597.81
2019-06-26T20:09:44.285Z,95597.17
2019-06-26T20:12:12.948Z,95594.89
2019-06-26T20:14:41.521Z,95592.52
2019-06-26T20:17:10.078Z,95593.37
2019-06-26T20:19:38.716Z,95598.73
2019-06-26T20:22:07.968Z,95600.89
2019-06-26T20:24:43.977Z,95599.22
2019-06-26T20:27:06.724Z,95603.85
2019-06-26T20:29:35.456Z,95610.85
2019-06-26T20:32:04.021Z,95604.48
2019-06-26T20:34:32.513Z,95604.80
2019-06-26T20:37:01.200Z,95606.25
2019-06-26T20:39:29.766Z,95597.19
2019-06-26T20:41:58.345Z,95596.34
2019-06-26T20:44:27.003Z,95602.52
2019-06-26T20:46:55.644Z,95582.89
2019-06-26T20:49:24.185Z,95597.45
2019-06-26T20:51:53.422Z,95588.66
2019-06-26T20:54:22.061Z,95588.84
2019-06-26T20:56:50.701Z,95587.76
2019-06-26T20:59:19.321Z,95592.50
2019-06-26T21:01:47.833Z,95591.57
2019-06-26T21:04:16.457Z,95594.84
2019-06-26T21:06:45.145Z,95595.89
2019-06-26T21:09:13.646Z,95588.61
2019-06-26T21:11:42.201Z,95588.27
2019-06-26T21:14:10.888Z,95580.39
2019-06-26T21:16:39.550Z,95580.34
2019-06-26T21:19:08.701Z,95577.33
2019-06-26T21:21:37.580Z,95581.52
2019-06-26T21:24:06.242Z,95582.55
2019-06-26T21:26:34.819Z,95582.17
2019-06-26T21:29:03.516Z,95582.88
2019-06-26T21:31:32.139Z,95576.28
2019-06-26T21:34:01.318Z,95573.72
2019-06-26T21:36:29.914Z,95577.07
2019-06-26T21:38:58.585Z,95580.31
2019-06-26T21:41:27.218Z,95575.48
2019-06-26T21:43:55.788Z,95578.75
2019-06-26T21:46:24.285Z,95579.92
2019-06-26T21:48:52.959Z,95579.03
2019-06-26T21:51:21.604Z,95581.20
2019-06-26T21:53:50.111Z,95577.20
2019-06-26T21:56:18.934Z,95572.24
2019-06-26T21:58:47.437Z,95573.04
2019-06-26T22:01:16.012Z,95573.35
2019-06-26T22:03:44.759Z,95574.42
2019-06-26T22:06:13.497Z,95572.04
2019-06-26T22:08:41.998Z,95565.12
2019-06-26T22:11:10.528Z,95573.48
2019-06-26T22:13:39.168Z,95566.81
2019-06-26T22:16:07.918Z,95564.30
2019-06-26T22:18:36.461Z,95568.48
2019-06-26T22:21:05.191Z,95568.64
2019-06-26T22:23:33.844Z,95558.52
2019-06-26T22:26:02.576Z,95560.70
2019-06-26T22:28:31.147Z,95568.01
2019-06-26T22:30:59.797Z,95565.95
2019-06-26T22:33:28.475Z,95560.80
2019-06-26T22:35:57.116Z,95558.50
2019-06-26T22:38:25.761Z,95556.72
2019-06-26T22:40:54.430Z,95552.60
2019-06-26T22:43:23.083Z,95550.72
2019-06-26T22:45:51.731Z,95533.34
2019-06-26T22:48:20.338Z,95554.88
2019-06-26T22:50:49.001Z,95551.34
2019-06-26T22:53:17.695Z,95549.80
2019-06-26T22:55:46.457Z,95544.17
2019-06-26T22:58:15.096Z,95542.95
2019-06-26T23:00:46.850Z,95541.34
2019-06-26T23:03:14.142Z,95539.06
2019-06-26T23:05:42.793Z,95543.39
2019-06-26T23:08:11.377Z,95538.12
2019-06-26T23:10:39.897Z,95539.15
2019-06-26T23:13:09.687Z,95536.23
2019-06-26T23:15:38.474Z,95538.27
2019-06-26T23:18:07.114Z,95538.56
2019-06-26T23:20:35.761Z,95536.69
2019-06-26T23:23:04.341Z,95533.14
2019-06-26T23:25:32.859Z,95528.86
2019-06-26T23:28:01.540Z,95525.58
2019-06-26T23:30:30.198Z,95524.94
2019-06-26T23:32:58.704Z,95526.08
2019-06-26T23:35:27.328Z,95525.31
2019-06-26T23:37:55.981Z,95528.09
2019-06-26T23:40:24.632Z,95525.08
2019-06-26T23:42:53.231Z,95529.13
2019-06-26T23:45:21.807Z,95519.28
2019-06-26T23:47:50.449Z,95529.39
2019-06-26T23:50:19.141Z,95525.19
2019-06-26T23:52:47.643Z,95523.05
2019-06-26T23:55:16.286Z,95522.30
2019-06-26T23:57:58.498Z,95518.78
